Rock Grove, Illinois
Current Conditions -  °F | °C
As of 8:55 PM on Saturday 25 Oct 2014 (Local Time) from KFEP Reporting Station
Clear Clear  
Wind Chill: 51°   Ceiling: Unl
Heat Index: 51°   Visibility: 10mi
Dew Point: 31°   Wind: 7mph
Humidity: 47%   Direction: 290°WNW
Pressure: 30.02"   Gusts: NA
Location:  42.4147°N, 89.4715°W
Report Text: KFEP 260155Z AUTO 29006KT 10SM CLR 11/00 A3002 RMK AO2 T01051005
Loading
Personal Weather Stations






























Interactive Weather Map
Tropical Storm Tracking
New forecast layout! Learn more

10-Day Weather Forecast

Advertisements
Track Severe Weather on mobile